Morrisville, Missouri
Current Conditions -  °F | °C
As of 1:52 PM on Tuesday 21 Oct 2014 (Local Time) from KSGF Reporting Station
Clear Clear  
Wind Chill: 22°   Ceiling: Unl
Heat Index: 22°   Visibility: 10mi
Dew Point:   Wind: 0mph
Humidity: 33%   Direction: NA
Pressure: 30.1"   Gusts: NA
Location:  37.48°N, 93.43°W
Report Text: KSGF 211852Z 00000KT 10SM CLR 22/05 A3010 RMK AO2 SLP188 T02220050
Loading
Personal Weather Stations






























Interactive Weather Map
Tropical Storm Tracking
New forecast layout! Learn more

10-Day Weather Forecast

Advertisements
Track Severe Weather on mobile